createdAt,value
2017-12-29T00:00:18.716Z,12.13
2017-12-29T00:02:47.059Z,10.40
2017-12-29T00:05:15.466Z,10.25
2017-12-29T00:07:43.839Z,10.35
2017-12-29T00:10:12.233Z,12.50
2017-12-29T00:12:40.587Z,9.68
2017-12-29T00:15:08.945Z,10.32
2017-12-29T00:17:37.294Z,9.85
2017-12-29T00:20:05.679Z,11.15
2017-12-29T00:22:34.027Z,9.30
2017-12-29T00:25:02.379Z,10.18
2017-12-29T00:27:30.740Z,10.23
2017-12-29T00:29:59.129Z,10.80
2017-12-29T00:32:27.497Z,10.52
2017-12-29T00:34:55.865Z,10.90
2017-12-29T00:39:58.834Z,10.20
2017-12-29T00:42:27.219Z,10.35
2017-12-29T00:44:55.616Z,11.10
2017-12-29T00:47:24.026Z,10.48
2017-12-29T00:49:52.387Z,10.43
2017-12-29T00:52:20.778Z,10.55
2017-12-29T00:54:49.153Z,10.65
2017-12-29T00:57:17.516Z,10.25
2017-12-29T00:59:45.865Z,11.02
2017-12-29T01:02:14.219Z,10.32
2017-12-29T01:04:42.628Z,10.13
2017-12-29T01:07:10.976Z,11.12
2017-12-29T01:09:39.328Z,12.00
2017-12-29T01:12:07.680Z,11.27
2017-12-29T01:14:36.043Z,10.63
2017-12-29T01:17:04.419Z,9.40
2017-12-29T01:19:32.779Z,9.80
2017-12-29T01:22:01.173Z,9.32
2017-12-29T01:24:29.541Z,10.90
2017-12-29T01:26:57.903Z,11.75
2017-12-29T01:29:26.276Z,10.63
2017-12-29T01:31:54.626Z,10.75
2017-12-29T01:34:22.992Z,9.80
2017-12-29T01:36:51.355Z,9.50
2017-12-29T01:39:19.746Z,9.57
2017-12-29T01:41:48.103Z,8.13
2017-12-29T01:44:16.455Z,7.80
2017-12-29T01:46:44.806Z,8.95
2017-12-29T01:49:13.160Z,10.57
2017-12-29T01:51:49.218Z,8.75
2017-12-29T01:54:17.591Z,7.82
2017-12-29T01:56:45.944Z,8.00
2017-12-29T01:59:14.312Z,9.95
2017-12-29T02:01:42.659Z,8.95
2017-12-29T02:04:11.015Z,8.88
2017-12-29T02:06:39.378Z,7.70
2017-12-29T02:09:07.722Z,9.05
2017-12-29T02:11:36.099Z,8.45
2017-12-29T02:14:04.444Z,8.82
2017-12-29T02:16:32.816Z,8.25
2017-12-29T02:19:01.168Z,8.25
2017-12-29T02:21:29.502Z,8.27
2017-12-29T02:23:57.907Z,11.00
2017-12-29T02:26:26.253Z,8.75
2017-12-29T02:28:54.599Z,9.20
2017-12-29T02:31:22.953Z,8.35
2017-12-29T02:33:51.318Z,10.02
2017-12-29T02:36:19.712Z,10.05
2017-12-29T02:38:48.073Z,10.10
2017-12-29T02:41:16.428Z,8.23
2017-12-29T02:43:44.771Z,8.80
2017-12-29T02:46:13.153Z,7.50
2017-12-29T02:48:41.549Z,7.93
2017-12-29T02:51:09.891Z,8.18
2017-12-29T02:53:38.246Z,9.63
2017-12-29T02:56:06.609Z,8.82
2017-12-29T02:58:34.962Z,9.30
2017-12-29T03:01:03.306Z,9.75
2017-12-29T03:03:31.695Z,8.07
2017-12-29T03:06:00.079Z,8.70
2017-12-29T03:08:28.418Z,9.23
2017-12-29T03:10:56.817Z,10.00
2017-12-29T03:13:25.166Z,7.78
2017-12-29T03:15:53.560Z,7.15
2017-12-29T03:18:21.928Z,7.50
2017-12-29T03:20:50.318Z,8.10
2017-12-29T03:23:18.682Z,7.35
2017-12-29T03:25:47.037Z,7.37
2017-12-29T03:28:15.379Z,6.95
2017-12-29T03:30:43.767Z,8.68
2017-12-29T03:33:12.170Z,8.10
2017-12-29T03:35:40.527Z,8.32
2017-12-29T03:38:08.887Z,7.75
2017-12-29T03:40:37.227Z,7.35
2017-12-29T03:43:05.580Z,9.02
2017-12-29T03:45:33.960Z,8.02
2017-12-29T03:48:02.328Z,10.02
2017-12-29T03:50:30.706Z,7.65
2017-12-29T03:52:59.083Z,8.48
2017-12-29T03:55:27.450Z,7.40
2017-12-29T03:57:55.847Z,7.22
2017-12-29T04:00:36.558Z,8.38
2017-12-29T04:03:04.916Z,7.22
2017-12-29T04:05:33.273Z,7.50
2017-12-29T04:08:01.671Z,8.82
2017-12-29T04:10:30.023Z,8.02
2017-12-29T04:12:58.403Z,7.32
2017-12-29T04:15:26.771Z,8.05
2017-12-29T04:17:56.284Z,6.37
2017-12-29T04:20:24.630Z,7.43
2017-12-29T04:22:52.988Z,6.82
2017-12-29T04:25:21.375Z,7.30
2017-12-29T04:27:49.731Z,6.62
2017-12-29T04:30:18.103Z,6.62
2017-12-29T04:32:46.448Z,6.85
2017-12-29T04:35:14.842Z,6.85
2017-12-29T04:37:43.182Z,7.35
2017-12-29T04:40:11.601Z,6.05
2017-12-29T04:42:39.954Z,6.15
2017-12-29T04:45:08.317Z,6.75
2017-12-29T04:47:36.663Z,5.80
2017-12-29T04:50:05.015Z,6.72
2017-12-29T04:52:33.473Z,5.03
2017-12-29T04:55:01.824Z,7.20
2017-12-29T04:57:30.176Z,5.40
2017-12-29T04:59:58.536Z,5.70
2017-12-29T05:02:26.883Z,5.85
2017-12-29T05:04:55.273Z,6.75
2017-12-29T05:07:23.668Z,6.22
2017-12-29T05:09:52.018Z,7.75
2017-12-29T05:12:20.387Z,7.53
2017-12-29T05:14:48.739Z,6.20
2017-12-29T05:17:17.090Z,6.03
2017-12-29T05:19:45.443Z,6.15
2017-12-29T05:22:13.836Z,6.10
2017-12-29T05:24:42.186Z,5.72
2017-12-29T05:27:10.533Z,5.22
2017-12-29T05:29:38.879Z,5.05
2017-12-29T05:32:07.222Z,5.70
2017-12-29T05:34:35.623Z,5.85
2017-12-29T05:37:03.964Z,5.78
2017-12-29T05:39:32.333Z,5.15
2017-12-29T05:42:00.694Z,5.10
2017-12-29T05:44:29.047Z,6.07
2017-12-29T05:46:57.462Z,6.43
2017-12-29T05:49:25.818Z,5.15
2017-12-29T05:51:54.175Z,5.80
2017-12-29T05:54:22.530Z,5.10
2017-12-29T05:56:50.884Z,4.40
2017-12-29T05:59:19.260Z,5.97
2017-12-29T06:01:47.617Z,4.37
2017-12-29T06:04:15.976Z,4.70
2017-12-29T06:06:44.340Z,7.07
2017-12-29T06:09:12.679Z,4.12
2017-12-29T06:11:41.059Z,4.50
2017-12-29T06:14:09.410Z,5.00
2017-12-29T06:16:37.750Z,4.15
2017-12-29T06:19:06.095Z,4.87
2017-12-29T06:21:34.521Z,3.62
2017-12-29T06:24:02.904Z,4.62
2017-12-29T06:26:31.297Z,2.92
2017-12-29T06:28:59.759Z,3.50
2017-12-29T06:31:28.127Z,3.60
2017-12-29T06:33:56.476Z,3.40
2017-12-29T06:36:24.854Z,3.78
2017-12-29T06:38:53.211Z,3.60
2017-12-29T06:41:21.573Z,3.80
2017-12-29T06:43:49.935Z,3.70
2017-12-29T06:46:18.340Z,3.50
2017-12-29T06:48:46.724Z,3.83
2017-12-29T06:51:15.071Z,3.75
2017-12-29T06:53:43.416Z,3.10
2017-12-29T06:56:11.778Z,3.80
2017-12-29T06:58:40.127Z,2.90
2017-12-29T07:01:08.495Z,3.75
2017-12-29T07:03:36.849Z,2.83
2017-12-29T07:06:05.205Z,3.28
2017-12-29T07:08:33.553Z,3.00
2017-12-29T07:11:01.920Z,3.30
2017-12-29T07:13:30.298Z,3.25
2017-12-29T07:15:58.645Z,2.25
2017-12-29T07:18:26.990Z,2.40
2017-12-29T07:20:55.379Z,2.92
2017-12-29T07:23:23.719Z,3.00
2017-12-29T07:25:52.178Z,2.72
2017-12-29T07:28:20.524Z,3.00
2017-12-29T07:30:49.194Z,2.70
2017-12-29T07:33:17.540Z,2.65
2017-12-29T07:35:45.954Z,2.75
2017-12-29T07:38:14.376Z,3.00
2017-12-29T07:40:42.729Z,2.40
2017-12-29T07:43:11.249Z,2.60
2017-12-29T07:45:39.601Z,2.70
2017-12-29T07:48:07.933Z,3.30
2017-12-29T07:50:36.332Z,4.40
2017-12-29T07:53:04.727Z,2.70
2017-12-29T07:55:33.320Z,2.85
2017-12-29T07:58:01.764Z,2.92
2017-12-29T08:00:30.103Z,2.87
2017-12-29T08:02:58.522Z,2.50
2017-12-29T08:05:26.901Z,2.40
2017-12-29T08:07:55.256Z,2.50
2017-12-29T08:10:23.660Z,3.03
2017-12-29T08:12:52.006Z,3.53
2017-12-29T08:15:20.362Z,2.90
2017-12-29T08:17:48.706Z,2.78
2017-12-29T08:20:17.051Z,3.10
2017-12-29T08:22:45.415Z,2.85
2017-12-29T08:25:13.830Z,2.70
2017-12-29T08:27:42.177Z,3.28
2017-12-29T08:30:10.536Z,2.95
2017-12-29T08:32:38.875Z,3.12
2017-12-29T08:35:07.206Z,2.87
2017-12-29T08:37:35.580Z,2.72
2017-12-29T08:40:03.962Z,3.42
2017-12-29T08:42:32.313Z,3.47
2017-12-29T08:45:00.663Z,3.05
2017-12-29T08:47:29.029Z,3.10
2017-12-29T08:49:57.371Z,3.05
2017-12-29T08:52:25.803Z,2.55
2017-12-29T08:54:54.180Z,3.17
2017-12-29T08:57:22.511Z,4.20
2017-12-29T08:59:50.860Z,3.08
2017-12-29T09:02:19.339Z,3.42
2017-12-29T09:04:47.716Z,3.33
2017-12-29T09:07:16.079Z,3.50
2017-12-29T09:09:44.422Z,2.78
2017-12-29T09:12:12.788Z,2.70
2017-12-29T09:14:42.082Z,2.75
2017-12-29T09:17:10.451Z,2.95
2017-12-29T09:19:38.792Z,2.75
2017-12-29T09:22:07.146Z,3.00
2017-12-29T09:24:35.520Z,3.12
2017-12-29T09:27:03.887Z,2.83
2017-12-29T09:29:32.245Z,3.00
2017-12-29T09:32:00.584Z,3.20
2017-12-29T09:34:28.927Z,2.83
2017-12-29T09:36:57.321Z,3.22
2017-12-29T09:39:25.708Z,2.83
2017-12-29T09:41:54.059Z,2.67
2017-12-29T09:44:22.422Z,3.75
2017-12-29T09:46:50.754Z,2.90
2017-12-29T09:49:19.184Z,3.55
2017-12-29T09:51:47.547Z,3.50
2017-12-29T09:54:16.860Z,3.55
2017-12-29T09:56:45.227Z,3.25
2017-12-29T09:59:13.608Z,3.20
2017-12-29T10:01:41.990Z,3.20
2017-12-29T10:04:10.382Z,3.42
2017-12-29T10:06:38.732Z,3.65
2017-12-29T10:09:07.070Z,3.80
2017-12-29T10:11:35.410Z,3.17
2017-12-29T10:14:03.789Z,3.20
2017-12-29T10:16:32.171Z,2.87
2017-12-29T10:19:00.630Z,2.47
2017-12-29T10:21:28.972Z,2.97
2017-12-29T10:23:57.383Z,2.75
2017-12-29T10:26:25.753Z,3.37
2017-12-29T10:28:54.098Z,3.70
2017-12-29T10:31:22.502Z,3.30
2017-12-29T10:33:50.867Z,3.25
2017-12-29T10:36:19.238Z,3.78
2017-12-29T10:38:47.572Z,3.50
2017-12-29T10:41:15.917Z,4.05
2017-12-29T10:43:44.314Z,3.90
2017-12-29T10:46:12.673Z,3.25
2017-12-29T10:48:41.017Z,3.42
2017-12-29T10:51:09.378Z,4.00
2017-12-29T10:53:38.675Z,3.90
2017-12-29T10:56:07.052Z,4.20
2017-12-29T10:58:35.459Z,3.97
2017-12-29T11:01:03.824Z,4.32
2017-12-29T11:03:32.170Z,4.93
2017-12-29T11:06:00.519Z,4.57
2017-12-29T11:08:28.911Z,5.50
2017-12-29T11:10:57.258Z,5.30
2017-12-29T11:13:25.630Z,4.70
2017-12-29T11:15:53.971Z,5.30
2017-12-29T11:18:22.352Z,4.22
2017-12-29T11:20:50.784Z,3.67
2017-12-29T11:23:19.174Z,4.60
2017-12-29T11:25:47.531Z,4.22
2017-12-29T11:28:15.862Z,3.17
2017-12-29T11:30:44.274Z,4.05
2017-12-29T11:33:12.728Z,4.45
2017-12-29T11:35:41.105Z,4.10
2017-12-29T11:38:09.470Z,3.85
2017-12-29T11:40:37.807Z,3.87
2017-12-29T11:43:06.175Z,4.60
2017-12-29T11:45:34.541Z,4.30
2017-12-29T11:48:02.906Z,3.30
2017-12-29T11:50:31.257Z,4.40
2017-12-29T11:52:59.609Z,3.97
2017-12-29T11:55:27.980Z,3.83
2017-12-29T11:57:56.338Z,3.15
2017-12-29T12:00:24.722Z,3.62
2017-12-29T12:02:53.068Z,3.53
2017-12-29T12:05:22.370Z,3.30
2017-12-29T12:07:50.731Z,3.30
2017-12-29T12:10:19.115Z,3.05
2017-12-29T12:12:47.459Z,3.67
2017-12-29T12:15:15.797Z,3.20
2017-12-29T12:17:44.143Z,3.83
2017-12-29T12:20:12.486Z,3.00
2017-12-29T12:22:40.902Z,3.10
2017-12-29T12:25:09.252Z,3.08
2017-12-29T12:27:37.616Z,3.55
2017-12-29T12:30:05.965Z,2.90
2017-12-29T12:35:08.807Z,2.90
2017-12-29T12:37:37.157Z,2.83
2017-12-29T12:40:05.505Z,4.10
2017-12-29T12:42:33.850Z,3.05
2017-12-29T12:45:02.205Z,3.03
2017-12-29T12:47:30.584Z,2.90
2017-12-29T12:49:58.948Z,2.50
2017-12-29T12:52:27.301Z,2.90
2017-12-29T12:54:55.655Z,3.03
2017-12-29T12:57:24.012Z,3.40
2017-12-29T12:59:52.420Z,2.70
2017-12-29T13:02:20.764Z,2.90
2017-12-29T13:04:49.104Z,2.65
2017-12-29T13:07:17.491Z,2.90
2017-12-29T13:09:45.832Z,2.72
2017-12-29T13:12:14.214Z,2.60
2017-12-29T13:14:42.564Z,2.90
2017-12-29T13:17:10.927Z,2.90
2017-12-29T13:19:39.293Z,2.87
2017-12-29T13:22:07.639Z,3.10
2017-12-29T13:24:36.006Z,3.35
2017-12-29T13:27:04.374Z,2.30
2017-12-29T13:29:32.758Z,2.90
2017-12-29T13:32:01.225Z,3.33
2017-12-29T13:34:29.703Z,3.10
2017-12-29T13:36:58.091Z,4.05
2017-12-29T13:39:26.432Z,2.67
2017-12-29T13:41:54.814Z,3.25
2017-12-29T13:44:23.183Z,2.92
2017-12-29T13:46:51.528Z,3.42
2017-12-29T13:49:19.923Z,3.08
2017-12-29T13:51:48.281Z,3.85
2017-12-29T13:54:16.657Z,3.40
2017-12-29T13:56:45.013Z,3.70
2017-12-29T13:59:13.346Z,3.85
2017-12-29T14:01:41.695Z,3.40
2017-12-29T14:04:10.046Z,3.12
2017-12-29T14:06:38.423Z,3.53
2017-12-29T14:09:06.773Z,3.22
2017-12-29T14:11:35.126Z,3.30
2017-12-29T14:14:03.473Z,3.65
2017-12-29T14:16:31.824Z,3.08
2017-12-29T14:19:00.292Z,3.00
2017-12-29T14:21:28.625Z,3.35
2017-12-29T14:23:57.028Z,3.72
2017-12-29T14:26:25.400Z,3.20
2017-12-29T14:28:53.742Z,3.30
2017-12-29T14:31:22.112Z,2.92
2017-12-29T14:33:50.447Z,3.58
2017-12-29T14:36:18.825Z,4.07
2017-12-29T14:38:47.186Z,3.67
2017-12-29T14:41:15.549Z,3.45
2017-12-29T14:43:43.901Z,3.55
2017-12-29T14:46:12.259Z,3.65
2017-12-29T14:48:40.626Z,4.07
2017-12-29T14:51:08.969Z,3.87
2017-12-29T14:53:37.302Z,3.50
2017-12-29T14:56:05.655Z,4.18
2017-12-29T14:58:34.008Z,3.60
2017-12-29T15:01:02.393Z,2.50
2017-12-29T15:03:30.746Z,3.30
2017-12-29T15:05:59.081Z,4.70
2017-12-29T15:08:27.423Z,3.97
2017-12-29T15:10:55.786Z,4.10
2017-12-29T15:13:24.163Z,3.97
2017-12-29T15:15:52.510Z,3.78
2017-12-29T15:18:20.969Z,4.60
2017-12-29T15:20:49.316Z,3.78
2017-12-29T15:23:17.679Z,3.50
2017-12-29T15:25:46.023Z,3.62
2017-12-29T15:28:14.375Z,3.80
2017-12-29T15:30:43.660Z,4.00
2017-12-29T15:33:12.024Z,4.10
2017-12-29T15:35:40.379Z,3.40
2017-12-29T15:38:08.726Z,3.67
2017-12-29T15:40:37.070Z,3.80
2017-12-29T15:43:05.461Z,3.45
2017-12-29T15:45:33.796Z,4.60
2017-12-29T15:48:02.137Z,5.00
2017-12-29T15:50:30.479Z,4.20
2017-12-29T15:52:58.828Z,3.72
2017-12-29T15:55:27.206Z,3.30
2017-12-29T15:57:55.574Z,4.12
2017-12-29T16:00:23.944Z,4.20
2017-12-29T16:02:52.300Z,3.78
2017-12-29T16:05:20.655Z,3.83
2017-12-29T16:07:49.046Z,3.70
2017-12-29T16:10:17.405Z,3.87
2017-12-29T16:12:45.753Z,3.75
2017-12-29T16:15:14.105Z,4.53
2017-12-29T16:17:42.455Z,4.60
2017-12-29T16:20:10.855Z,5.03
2017-12-29T16:22:39.200Z,5.10
2017-12-29T16:25:07.547Z,4.53
2017-12-29T16:27:35.926Z,5.30
2017-12-29T16:30:04.271Z,5.95
2017-12-29T16:32:32.683Z,5.43
2017-12-29T16:35:01.033Z,6.15
2017-12-29T16:37:29.385Z,6.12
2017-12-29T16:39:57.756Z,6.00
2017-12-29T16:42:26.119Z,5.10
2017-12-29T16:44:54.491Z,5.22
2017-12-29T16:47:22.841Z,4.82
2017-12-29T16:49:51.174Z,4.95
2017-12-29T16:52:19.560Z,4.65
2017-12-29T16:54:47.921Z,3.60
2017-12-29T16:57:16.286Z,4.20
2017-12-29T16:59:44.626Z,3.10
2017-12-29T17:02:12.961Z,3.72
2017-12-29T17:04:41.316Z,4.25
2017-12-29T17:07:09.655Z,3.80
2017-12-29T17:09:38.024Z,3.30
2017-12-29T17:12:06.375Z,3.95
2017-12-29T17:14:34.723Z,3.12
2017-12-29T17:17:03.082Z,3.15
2017-12-29T17:19:31.434Z,3.40
2017-12-29T17:21:59.835Z,3.35
2017-12-29T17:24:28.180Z,3.35
2017-12-29T17:26:56.527Z,2.90
2017-12-29T17:29:24.933Z,3.65
2017-12-29T17:31:53.291Z,3.03
2017-12-29T17:34:21.686Z,3.45
2017-12-29T17:36:50.039Z,3.35
2017-12-29T17:39:18.379Z,3.85
2017-12-29T17:41:46.754Z,2.65
2017-12-29T17:44:15.114Z,2.90
2017-12-29T17:46:43.511Z,3.25
2017-12-29T17:49:11.908Z,2.90
2017-12-29T17:51:40.257Z,3.03
2017-12-29T17:54:08.603Z,3.03
2017-12-29T17:56:36.965Z,3.17
2017-12-29T17:59:05.345Z,3.40
2017-12-29T18:01:33.696Z,3.00
2017-12-29T18:04:02.088Z,3.10
2017-12-29T18:06:30.496Z,1.85
2017-12-29T18:08:58.885Z,2.65
2017-12-29T18:11:27.238Z,3.17
2017-12-29T18:13:55.605Z,2.60
2017-12-29T18:16:24.077Z,2.55
2017-12-29T18:18:52.448Z,2.75
2017-12-29T18:21:20.876Z,2.40
2017-12-29T18:23:49.286Z,2.33
2017-12-29T18:26:17.638Z,2.17
2017-12-29T18:28:46.024Z,1.92
2017-12-29T18:31:14.396Z,2.30
2017-12-29T18:33:42.803Z,2.00
2017-12-29T18:36:11.165Z,1.50
2017-12-29T18:38:39.528Z,2.28
2017-12-29T18:41:07.909Z,2.40
2017-12-29T18:43:36.264Z,3.70
2017-12-29T18:46:04.677Z,2.40
2017-12-29T18:48:33.040Z,1.98
2017-12-29T18:51:01.433Z,1.85
2017-12-29T18:53:29.774Z,1.98
2017-12-29T18:55:58.126Z,1.70
2017-12-29T18:58:26.506Z,1.87
2017-12-29T19:00:55.078Z,2.10
2017-12-29T19:03:23.843Z,1.73
2017-12-29T19:05:52.226Z,1.87
2017-12-29T19:08:20.574Z,2.10
2017-12-29T19:10:48.982Z,1.60
2017-12-29T19:13:17.372Z,1.90
2017-12-29T19:15:45.713Z,2.05
2017-12-29T19:18:14.046Z,1.90
2017-12-29T19:20:42.419Z,2.00
2017-12-29T19:23:10.804Z,1.50
2017-12-29T19:25:39.158Z,1.50
2017-12-29T19:28:07.503Z,1.65
2017-12-29T19:30:35.861Z,1.70
2017-12-29T19:33:04.215Z,1.25
2017-12-29T19:35:32.598Z,1.62
2017-12-29T19:38:02.878Z,1.27
2017-12-29T19:40:34.815Z,1.50
2017-12-29T19:43:03.261Z,1.95
2017-12-29T19:45:31.622Z,1.60
2017-12-29T19:47:59.961Z,1.50
2017-12-29T19:50:28.322Z,1.30
2017-12-29T19:52:56.733Z,1.12
2017-12-29T19:55:25.097Z,1.48
2017-12-29T19:57:53.452Z,1.50
2017-12-29T20:00:21.834Z,1.45
2017-12-29T20:02:50.344Z,2.37
2017-12-29T20:05:18.812Z,1.70
2017-12-29T20:07:47.168Z,3.80
2017-12-29T20:10:15.524Z,1.60
2017-12-29T20:12:43.867Z,1.23
2017-12-29T20:15:12.208Z,2.08
2017-12-29T20:17:40.611Z,2.25
2017-12-29T20:20:08.980Z,1.40
2017-12-29T20:22:37.332Z,1.17
2017-12-29T20:25:05.675Z,2.75
2017-12-29T20:27:34.023Z,0.93
2017-12-29T20:30:02.499Z,1.60
2017-12-29T20:32:30.851Z,1.70
2017-12-29T20:34:59.217Z,1.30
2017-12-29T20:37:27.627Z,1.60
2017-12-29T20:39:55.974Z,2.10
2017-12-29T20:42:24.354Z,1.80
2017-12-29T20:44:52.747Z,2.58
2017-12-29T20:47:21.137Z,2.85
2017-12-29T20:49:49.499Z,3.35
2017-12-29T20:52:17.848Z,1.87
2017-12-29T20:54:46.294Z,1.48
2017-12-29T20:57:14.638Z,1.20
2017-12-29T20:59:42.996Z,1.12
2017-12-29T21:02:11.360Z,1.50
2017-12-29T21:04:39.704Z,1.40
2017-12-29T21:07:08.100Z,2.90
2017-12-29T21:09:36.507Z,3.20
2017-12-29T21:12:04.923Z,3.37
2017-12-29T21:14:33.313Z,1.80
2017-12-29T21:17:01.662Z,4.50
2017-12-29T21:19:30.079Z,2.95
2017-12-29T21:21:58.615Z,2.20
2017-12-29T21:24:26.975Z,2.53
2017-12-29T21:26:55.327Z,2.58
2017-12-29T21:29:23.766Z,1.73
2017-12-29T21:31:52.101Z,1.25
2017-12-29T21:34:20.538Z,1.70
2017-12-29T21:36:49.113Z,1.45
2017-12-29T21:39:17.547Z,1.62
2017-12-29T21:41:45.888Z,1.65
2017-12-29T21:44:14.263Z,3.45
2017-12-29T21:46:42.665Z,2.20
2017-12-29T21:49:11.014Z,1.50
2017-12-29T21:51:39.389Z,1.27
2017-12-29T21:54:07.746Z,1.25
2017-12-29T21:56:36.100Z,1.40
2017-12-29T21:59:04.479Z,1.60
2017-12-29T22:01:32.878Z,1.73
2017-12-29T22:04:01.287Z,1.75
2017-12-29T22:06:29.638Z,2.20
2017-12-29T22:08:58.025Z,2.92
2017-12-29T22:11:26.399Z,1.50
2017-12-29T22:13:54.804Z,1.70
2017-12-29T22:16:23.269Z,1.95
2017-12-29T22:18:51.663Z,1.85
2017-12-29T22:21:20.007Z,3.25
2017-12-29T22:23:48.350Z,2.67
2017-12-29T22:26:16.714Z,2.80
2017-12-29T22:28:45.056Z,3.33
2017-12-29T22:31:13.460Z,3.50
2017-12-29T22:33:41.813Z,4.32
2017-12-29T22:36:10.155Z,3.25
2017-12-29T22:38:38.507Z,3.70
2017-12-29T22:41:06.856Z,3.22
2017-12-29T22:43:35.255Z,4.90
2017-12-29T22:46:03.691Z,5.10
2017-12-29T22:48:32.023Z,4.97
2017-12-29T22:51:00.369Z,4.40
2017-12-29T22:53:28.715Z,5.55
2017-12-29T22:55:57.108Z,5.87
2017-12-29T22:58:25.460Z,8.40
2017-12-29T23:00:53.828Z,7.05
2017-12-29T23:03:22.220Z,8.98
2017-12-29T23:05:50.612Z,10.02
2017-12-29T23:08:18.967Z,9.00
2017-12-29T23:10:48.379Z,11.05
2017-12-29T23:13:16.737Z,8.40
2017-12-29T23:15:45.116Z,8.70
2017-12-29T23:18:13.494Z,12.98
2017-12-29T23:20:41.894Z,8.15
2017-12-29T23:23:10.255Z,14.48
2017-12-29T23:25:38.629Z,12.80
2017-12-29T23:28:06.993Z,12.75
2017-12-29T23:30:35.369Z,13.55
2017-12-29T23:33:03.755Z,29.02
2017-12-29T23:35:32.124Z,14.43
2017-12-29T23:38:00.525Z,13.23
2017-12-29T23:40:28.886Z,12.48
2017-12-29T23:42:57.258Z,13.60
2017-12-29T23:45:25.637Z,11.18
2017-12-29T23:47:54.024Z,12.40
2017-12-29T23:50:22.405Z,14.07
2017-12-29T23:52:50.769Z,12.88
2017-12-29T23:55:19.134Z,10.98
2017-12-29T23:57:47.539Z,13.20
